Time,TemperatureF,DewpointF,PressureIn,WindDirection,WindDirectionDegrees,WindSpeedMPH,WindSpeedGustMPH,Humidity,HourlyPrecipIn,Conditions,Clouds,dailyrainin,SoftwareType,DateUTC
2013-03-13 02:20:00,51.0,48.0,-100.00,WNW,289,6.0,13.0,89,-99.99,,,-99.99,,2013-03-13 09:20:00,
2013-03-13 03:02:00,51.0,48.0,-100.00,WNW,289,6.0,13.0,89,-99.99,,,-99.99,,2013-03-13 10:02:00,
2013-03-13 03:11:00,51.0,48.0,-100.00,WNW,289,6.0,13.0,89,-99.99,,,-99.99,,2013-03-13 10:11:00,
2013-03-13 05:00:00,50.0,47.0,-100.00,SSE,151,9.0,21.0,89,-99.99,,,-99.99,,2013-03-13 12:00:00,
2013-03-13 06:20:00,51.0,47.0,-100.00,South,176,12.0,23.0,86,-99.99,,,-99.99,,2013-03-13 13:20:00,
2013-03-13 07:00:00,50.0,47.0,-100.00,SE,141,1.0,5.0,89,-99.99,,,-99.99,,2013-03-13 14:00:00,
2013-03-13 07:02:00,51.0,47.0,-100.00,South,176,12.0,23.0,86,-99.99,,,-99.99,,2013-03-13 14:02:00,
2013-03-13 07:12:00,51.0,47.0,-100.00,South,176,12.0,23.0,86,-99.99,,,-99.99,,2013-03-13 14:12:00,
2013-03-13 08:20:00,49.0,47.0,-100.00,North,354,1.0,3.0,92,-99.99,,,-99.99,,2013-03-13 15:20:00,
2013-03-13 09:00:00,49.0,48.0,-100.00,SE,126,1.0,5.0,96,-99.99,,,-99.99,,2013-03-13 16:00:00,
2013-03-13 09:02:00,49.0,47.0,-100.00,North,354,1.0,3.0,92,-99.99,,,-99.99,,2013-03-13 16:02:00,
2013-03-13 09:12:00,49.0,47.0,-100.00,North,354,1.0,3.0,92,-99.99,,,-99.99,,2013-03-13 16:12:00,
2013-03-13 10:20:00,51.0,47.0,-100.00,South,171,7.0,15.0,86,-99.99,,,-99.99,,2013-03-13 17:20:00,
2013-03-13 11:00:00,51.0,47.0,-100.00,South,174,3.0,13.0,86,-99.99,,,-99.99,,2013-03-13 18:00:00,
2013-03-13 11:02:00,51.0,47.0,-100.00,South,171,7.0,15.0,86,-99.99,,,-99.99,,2013-03-13 18:02:00,
2013-03-13 11:12:00,51.0,47.0,-100.00,South,171,7.0,15.0,86,-99.99,,,-99.99,,2013-03-13 18:12:00,
2013-03-13 15:00:00,52.0,49.0,-100.00,SSE,158,1.0,3.0,89,-99.99,,,-99.99,,2013-03-13 22:00:00,
2013-03-13 17:00:00,51.0,49.0,-100.00,ESE,104,0.0,2.0,92,-99.99,,,-99.99,,2013-03-14 00:00:00,
2013-03-13 21:00:00,51.0,48.0,-100.00,SE,144,5.0,10.0,89,-99.99,,,-99.99,,2013-03-14 04:00:00,
2013-03-13 23:02:00,52.0,47.0,-100.00,SSE,150,5.0,14.0,82,-99.99,,,-99.99,,2013-03-14 06:02:00,
2013-03-13 23:12:00,52.0,47.0,-100.00,SSE,150,5.0,14.0,82,-99.99,,,-99.99,,2013-03-14 06:12:00,